Time;durP1;ratioP1;P1;durP2;ratioP2;P2;SDS_P1;SDS_P2;PMS_P1;PMS_P2;Temp;Humidity;BMP_temperature;BMP_pressure;BME280_temperature;BME280_humidity;BME280_pressure;Samples;Min_cycle;Max_cycle;Signal;HPM_P1;HPM_P2
2022/04/04 00:01:20;;;;;;;6.55;3.95;;;;;;;0.65;79.83;101916.91;5051078;28;20041;-81
2022/04/04 00:03:46;;;;;;;6.93;4.13;;;;;;;0.62;79.54;101917.69;5034136;28;20501;-80
2022/04/04 00:06:11;;;;;;;9.73;4.72;;;;;;;0.60;80.35;101906.31;5034175;28;20106;-80
2022/04/04 00:08:37;;;;;;;8.25;4.90;;;;;;;0.62;79.88;101911.59;5052145;28;20029;-80
2022/04/04 00:11:02;;;;;;;9.45;5.00;;;;;;;0.61;79.92;101897.66;5033941;28;20041;-81
2022/04/04 00:13:29;;;;;;;10.07;5.13;;;;;;;0.62;80.02;101898.56;5051781;28;20033;-80
2022/04/04 00:15:55;;;;;;;7.53;4.90;;;;;;;0.61;80.03;101895.03;5021924;28;20029;-80
2022/04/04 00:18:20;;;;;;;9.07;5.40;;;;;;;0.64;80.18;101896.88;5014323;28;20484;-80
2022/04/04 00:20:46;;;;;;;6.70;5.00;;;;;;;0.63;80.19;101884.69;5032260;28;20068;-80
2022/04/04 00:23:14;;;;;;;7.93;4.78;;;;;;;0.64;80.05;101882.16;5030580;28;20485;-80
2022/04/04 00:25:45;;;;;;;8.38;4.80;;;;;;;0.63;80.00;101874.25;5047268;28;20041;-80
2022/04/04 00:28:12;;;;;;;10.32;5.25;;;;;;;0.62;79.88;101875.09;5014330;28;20075;-80
2022/04/04 00:30:38;;;;;;;8.93;5.20;;;;;;;0.60;80.22;101871.56;5030656;28;20196;-80
2022/04/04 00:33:04;;;;;;;7.45;5.18;;;;;;;0.58;79.97;101870.59;5013899;28;20029;-80
2022/04/04 00:35:30;;;;;;;9.57;6.18;;;;;;;0.61;79.66;101865.50;5030410;28;20033;-80
2022/04/04 00:37:58;;;;;;;9.77;6.03;;;;;;;0.56;80.04;101864.44;5029760;28;20541;-80
2022/04/04 00:40:23;;;;;;;11.07;6.28;;;;;;;0.57;80.77;101861.00;5031663;28;20041;-80
2022/04/04 00:42:49;;;;;;;12.05;5.88;;;;;;;0.55;80.64;101866.16;5031127;28;20412;-80
2022/04/04 00:45:15;;;;;;;8.50;6.07;;;;;;;0.48;80.62;101848.53;5013291;28;20174;-80
2022/04/04 00:47:40;;;;;;;10.07;5.95;;;;;;;0.50;80.41;101851.22;5031617;28;20108;-80
2022/04/04 00:50:06;;;;;;;10.05;6.95;;;;;;;0.47;80.56;101841.56;5046736;28;20158;-80
2022/04/04 00:52:32;;;;;;;8.88;6.38;;;;;;;0.48;80.57;101840.72;5013444;28;20068;-80
2022/04/04 00:54:58;;;;;;;8.85;5.72;;;;;;;0.49;80.32;101845.09;5029937;28;20057;-80
2022/04/04 00:57:24;;;;;;;12.55;6.47;;;;;;;0.50;80.55;101839.06;5013329;28;20866;-80
2022/04/04 00:59:50;;;;;;;11.23;6.85;;;;;;;0.47;80.46;101838.03;5013580;28;20034;-80
2022/04/04 01:02:16;;;;;;;9.93;6.72;;;;;;;0.46;80.23;101831.06;5031223;28;20175;-80
2022/04/04 01:04:42;;;;;;;10.88;7.30;;;;;;;0.42;81.03;101828.38;4996944;28;20120;-80
2022/04/04 01:07:07;;;;;;;9.55;6.55;;;;;;;0.41;80.50;101823.09;5013506;28;20398;-81
2022/04/04 01:09:33;;;;;;;10.75;6.88;;;;;;;0.38;80.25;101817.78;5029977;28;20132;-80
2022/04/04 01:12:13;;;;;;;14.15;6.70;;;;;;;0.39;80.52;101815.22;5013792;28;20128;-80
2022/04/04 01:14:48;;;;;;;12.10;7.45;;;;;;;0.36;80.30;101809.91;5030208;28;20037;-80
2022/04/04 01:17:25;;;;;;;9.45;6.72;;;;;;;0.37;80.56;101805.56;5039931;28;20052;-80
2022/04/04 01:19:52;;;;;;;11.40;6.00;;;;;;;0.35;80.43;101800.31;5051250;28;20037;-80
2022/04/04 01:22:17;;;;;;;9.85;7.07;;;;;;;0.35;80.38;101802.03;5034357;28;20033;-80
2022/04/04 01:24:43;;;;;;;14.32;7.25;;;;;;;0.36;80.48;101794.25;5013702;28;20052;-80
2022/04/04 01:27:11;;;;;;;10.93;7.32;;;;;;;0.37;79.79;101788.25;5029689;28;20148;-80
2022/04/04 01:29:38;;;;;;;15.15;7.20;;;;;;;0.33;80.21;101786.34;5031181;28;20034;-80
2022/04/04 01:32:05;;;;;;;15.10;7.97;;;;;;;0.33;79.85;101775.94;5035506;28;20065;-80
2022/04/04 01:34:31;;;;;;;11.57;6.97;;;;;;;0.31;79.97;101772.38;5028475;28;20032;-80
2022/04/04 01:36:57;;;;;;;10.27;7.10;;;;;;;0.33;79.40;101765.50;5049342;28;20103;-80
2022/04/04 01:39:23;;;;;;;12.70;7.10;;;;;;;0.32;79.82;101761.13;5033091;28;20392;-80
2022/04/04 01:41:49;;;;;;;13.98;7.47;;;;;;;0.30;79.73;101764.53;5049904;28;20041;-80
2022/04/04 01:44:16;;;;;;;10.20;7.25;;;;;;;0.27;79.73;101754.84;5049361;28;20037;-80
2022/04/04 01:46:41;;;;;;;14.40;7.20;;;;;;;0.26;80.09;101747.00;5050922;28;20459;-80
2022/04/04 01:49:07;;;;;;;11.60;7.25;;;;;;;0.27;79.45;101740.94;5051074;28;20029;-80
2022/04/04 01:51:36;;;;;;;10.80;6.57;;;;;;;0.31;79.44;101735.03;5038144;28;20033;-80
2022/04/04 01:54:01;;;;;;;9.30;7.15;;;;;;;0.29;79.21;101728.88;5029568;28;20038;-80
2022/04/04 01:56:28;;;;;;;10.43;7.03;;;;;;;0.24;79.96;101726.09;5015778;28;20029;-80
2022/04/04 01:58:54;;;;;;;9.63;5.55;;;;;;;0.24;79.32;101726.09;5033786;28;20113;-80
2022/04/04 02:01:23;;;;;;;13.02;7.22;;;;;;;0.28;79.21;101725.38;5033565;28;20199;-80
2022/04/04 02:03:54;;;;;;;12.23;7.18;;;;;;;0.24;79.45;101714.81;5034947;28;20040;-80
2022/04/04 02:06:20;;;;;;;;;;;;;;;0.25;79.12;101712.25;5035645;28;20037;-80
2022/04/04 02:08:46;;;;;;;11.07;6.35;;;;;;;0.26;79.09;101707.94;5034425;28;19920;-80
2022/04/04 02:11:13;;;;;;;11.40;6.97;;;;;;;0.23;79.04;101697.41;5033589;28;20353;-79
2022/04/04 02:13:40;;;;;;;9.63;6.90;;;;;;;0.23;79.23;101698.28;5034713;28;20046;-80
2022/04/04 02:16:06;;;;;;;13.00;6.88;;;;;;;0.31;78.36;101698.53;5025308;28;20012;-80
2022/04/04 02:18:32;;;;;;;13.95;7.35;;;;;;;0.28;79.06;101690.63;5035193;28;20045;-80
2022/04/04 02:20:59;;;;;;;12.80;6.63;;;;;;;0.26;79.26;101692.28;5037930;28;20060;-80
2022/04/04 02:23:25;;;;;;;10.57;6.75;;;;;;;0.25;79.23;101683.59;5054407;28;20112;-80
2022/04/04 02:25:55;;;;;;;11.05;7.10;;;;;;;0.28;78.90;101690.63;5036641;28;20124;-80
2022/04/04 02:28:21;;;;;;;10.63;6.85;;;;;;;0.27;79.07;101679.31;5054323;28;20033;-79
2022/04/04 02:30:52;;;;;;;9.75;6.95;;;;;;;0.27;78.93;101668.00;5053151;28;20121;-80
2022/04/04 02:33:19;;;;;;;12.45;7.72;;;;;;;0.25;78.97;101670.56;5046805;28;20124;-80
2022/04/04 02:35:46;;;;;;;13.18;7.97;;;;;;;0.28;79.12;101662.84;5016363;28;20480;-80
2022/04/04 02:38:14;;;;;;;11.15;7.07;;;;;;;0.30;79.27;101662.91;5033952;28;20145;-80
2022/04/04 02:40:40;;;;;;;12.15;7.35;;;;;;;0.31;79.08;101644.72;5034154;28;20049;-80
2022/04/04 02:43:08;;;;;;;10.75;7.43;;;;;;;0.31;79.48;101651.66;5032351;28;20021;-80
2022/04/04 02:45:35;;;;;;;10.02;6.88;;;;;;;0.39;78.79;101639.75;5016226;28;20564;-80
2022/04/04 02:48:00;;;;;;;11.07;7.47;;;;;;;0.38;79.35;101635.38;5033693;28;20052;-80
2022/04/04 02:50:26;;;;;;;10.65;7.28;;;;;;;0.39;79.28;101618.91;5032388;28;20037;-80
2022/04/04 02:52:52;;;;;;;13.45;6.63;;;;;;;0.47;79.16;101624.34;5033766;28;20037;-80
2022/04/04 02:58:03;;;;;;;13.05;7.13;;;;;;;0.48;79.16;101611.38;5032185;28;20139;-80
2022/04/04 03:00:28;;;;;;;11.80;6.97;;;;;;;0.51;79.18;101613.19;5033742;28;20084;-80
2022/04/04 03:02:56;;;;;;;10.88;6.60;;;;;;;0.54;79.15;101608.97;5033327;28;20092;-80
2022/04/04 03:05:21;;;;;;;12.93;7.03;;;;;;;0.57;79.22;101598.66;5033600;28;20045;-80
2022/04/04 03:07:48;;;;;;;10.68;6.57;;;;;;;0.64;79.13;101590.19;5032817;28;20041;-88
2022/04/04 03:10:13;;;;;;;13.65;6.68;;;;;;;0.65;79.16;101583.25;5032764;28;20060;-88
2022/04/04 03:12:44;;;;;;;11.10;6.05;;;;;;;0.67;79.07;101584.19;5016122;28;20084;-88
2022/04/04 03:15:12;;;;;;;11.32;6.38;;;;;;;0.72;78.77;101592.13;5031888;28;20113;-88
2022/04/04 03:17:42;;;;;;;12.27;5.95;;;;;;;0.73;79.24;101573.94;5016203;28;20037;-88
2022/04/04 03:20:10;;;;;;;9.52;5.72;;;;;;;0.73;79.44;101571.31;5034566;28;20117;-88
2022/04/04 03:22:41;;;;;;;9.65;6.28;;;;;;;0.75;79.31;101569.66;5037611;28;20029;-89
2022/04/04 03:25:11;;;;;;;11.77;6.63;;;;;;;0.77;79.21;101561.88;5036765;28;20495;-89
2022/04/04 03:27:38;;;;;;;14.52;6.90;;;;;;;0.79;79.71;101563.69;5033650;28;20040;-89
2022/04/04 03:30:15;;;;;;;13.00;7.15;;;;;;;0.81;79.64;101559.38;5033055;28;20082;-89
2022/04/04 03:32:41;;;;;;;11.60;7.05;;;;;;;0.81;79.38;101543.75;5034179;28;20370;-89
2022/04/04 03:35:07;;;;;;;11.13;6.20;;;;;;;0.84;79.50;101551.69;5049104;28;20033;-88
2022/04/04 03:37:35;;;;;;;8.77;5.78;;;;;;;0.88;79.27;101546.53;5032171;28;20050;-89
2022/04/04 03:40:03;;;;;;;13.05;6.78;;;;;;;0.96;79.12;101545.03;5016143;28;20045;-89
2022/04/04 03:42:29;;;;;;;10.23;6.95;;;;;;;0.98;79.31;101531.19;5032541;28;20037;-88
2022/04/04 03:44:55;;;;;;;9.23;6.45;;;;;;;0.99;79.39;101522.53;5015847;28;20033;-88
2022/04/04 03:47:21;;;;;;;7.95;4.95;;;;;;;1.06;79.32;101514.06;5015475;28;20048;-89
2022/04/04 03:49:47;;;;;;;12.95;6.60;;;;;;;1.09;79.00;101523.69;5015607;28;20132;-88
2022/04/04 03:52:12;;;;;;;10.85;6.57;;;;;;;1.14;79.03;101511.66;5031683;28;20124;-88
2022/04/04 03:54:38;;;;;;;12.02;6.43;;;;;;;1.15;79.49;101502.09;4999158;28;20060;-88
2022/04/04 03:57:04;;;;;;;13.57;6.38;;;;;;;1.20;79.06;101509.19;4998896;28;20037;-89
2022/04/04 03:59:29;;;;;;;10.75;6.05;;;;;;;1.22;79.16;101504.03;5015425;28;20041;-88
2022/04/04 04:01:55;;;;;;;11.23;5.70;;;;;;;1.26;79.04;101493.72;5048339;28;20354;-88
2022/04/04 04:04:20;;;;;;;10.52;6.68;;;;;;;1.26;78.73;101484.97;5015010;28;20051;-89
2022/04/04 04:06:46;;;;;;;10.77;5.93;;;;;;;1.32;79.17;101485.16;5015074;28;20037;-89
2022/04/04 04:09:12;;;;;;;10.57;6.32;;;;;;;1.34;79.08;101477.38;5015096;28;20063;-89
2022/04/04 04:11:38;;;;;;;10.15;6.65;;;;;;;1.38;78.90;101479.22;5015049;28;20178;-89
2022/04/04 04:14:04;;;;;;;10.02;5.95;;;;;;;1.39;78.92;101462.72;5031332;28;20048;-89
2022/04/04 04:16:30;;;;;;;9.68;6.72;;;;;;;1.46;78.41;101457.69;5032705;28;20427;-88
2022/04/04 04:18:55;;;;;;;12.07;6.60;;;;;;;1.50;78.39;101456.03;5033553;28;20052;-88
2022/04/04 04:21:21;;;;;;;12.23;7.65;;;;;;;1.52;78.56;101450.88;5034458;28;20076;-89
2022/04/04 04:23:47;;;;;;;11.85;6.60;;;;;;;1.55;78.79;101446.59;5050985;28;20182;-88
2022/04/04 04:26:16;;;;;;;12.45;7.05;;;;;;;1.58;78.57;101451.00;5050878;28;20048;-87
2022/04/04 04:28:43;;;;;;;10.98;6.20;;;;;;;1.58;78.56;101433.59;5050191;28;20036;-81
2022/04/04 04:31:08;;;;;;;11.20;6.35;;;;;;;1.62;78.15;101434.56;5034034;28;20032;-81
2022/04/04 04:33:34;;;;;;;9.43;5.43;;;;;;;1.65;78.22;101424.19;5013161;28;20489;-81
2022/04/04 04:36:00;;;;;;;12.73;7.05;;;;;;;1.69;77.93;101421.69;5030492;28;20152;-81
2022/04/04 04:38:27;;;;;;;10.52;5.63;;;;;;;1.75;78.02;101420.97;5029892;28;20064;-81
2022/04/04 04:40:53;;;;;;;13.13;7.20;;;;;;;1.75;78.09;101412.25;5030287;28;20056;-82
2022/04/04 04:43:19;;;;;;;13.00;7.15;;;;;;;1.78;78.23;101407.09;5029790;28;20029;-81
2022/04/04 04:45:45;;;;;;;8.93;5.95;;;;;;;1.80;78.55;101408.88;5030213;28;20045;-80
2022/04/04 04:48:10;;;;;;;12.20;6.50;;;;;;;1.82;78.29;101407.19;5030077;28;20369;-80
2022/04/04 04:50:36;;;;;;;9.73;6.55;;;;;;;1.83;77.73;101398.53;4997008;28;20025;-80
2022/04/04 04:53:02;;;;;;;14.48;7.68;;;;;;;1.86;77.73;101402.94;5031255;28;20111;-80
2022/04/04 04:55:30;;;;;;;12.68;6.88;;;;;;;1.92;78.09;101395.22;5031569;28;20033;-80
2022/04/04 04:57:57;;;;;;;12.88;7.07;;;;;;;1.93;77.83;101381.34;5013325;28;20366;-81
2022/04/04 05:00:25;;;;;;;13.35;7.32;;;;;;;1.97;77.79;101380.53;5030192;28;20079;-80
2022/04/04 05:05:36;;;;;;;12.15;7.10;;;;;;;2.05;77.49;101375.47;5031524;28;20052;-84
2022/04/04 05:08:02;;;;;;;10.55;6.93;;;;;;;2.05;77.75;101365.94;5030362;28;20030;-84
2022/04/04 05:10:28;;;;;;;10.88;6.95;;;;;;;2.11;77.53;101373.00;5030909;28;20227;-82
2022/04/04 05:12:53;;;;;;;13.68;7.35;;;;;;;2.13;77.45;101345.19;5014377;28;20042;-86
2022/04/04 05:15:19;;;;;;;11.00;6.25;;;;;;;2.22;76.88;101349.72;5014176;28;20106;-87
2022/04/04 05:17:44;;;;;;;13.98;7.30;;;;;;;2.19;77.17;101345.31;5014631;28;20116;-85
2022/04/04 05:20:10;;;;;;;10.55;7.20;;;;;;;2.23;77.08;101341.03;5030704;28;20504;-87
2022/04/04 05:22:36;;;;;;;11.95;7.03;;;;;;;2.29;76.57;101325.47;5013944;28;20029;-86
2022/04/04 05:25:02;;;;;;;15.88;6.05;;;;;;;2.34;76.63;101327.31;4997678;28;20511;-83
2022/04/04 05:27:27;;;;;;;8.05;5.32;;;;;;;2.40;76.67;101310.88;5030451;28;20133;-86
2022/04/04 05:29:53;;;;;;;13.82;6.85;;;;;;;2.40;76.65;101326.56;5031320;28;20108;-86
2022/04/04 05:32:19;;;;;;;8.30;6.47;;;;;;;2.40;76.85;101321.34;5030335;28;20094;-85
2022/04/04 05:34:45;;;;;;;11.85;6.30;;;;;;;2.42;76.42;101303.06;4997390;28;20045;-86
2022/04/04 05:37:12;;;;;;;10.27;6.78;;;;;;;2.45;76.78;101324.91;5030078;28;20086;-87
2022/04/04 05:39:38;;;;;;;10.73;6.90;;;;;;;2.50;76.07;101302.38;5014327;28;20084;-85
2022/04/04 05:42:04;;;;;;;10.52;6.88;;;;;;;2.51;76.31;101296.25;4997570;28;20045;-87
2022/04/04 05:44:29;;;;;;;18.98;7.07;;;;;;;2.54;76.16;101304.16;5031508;28;20060;-87
2022/04/04 05:46:55;;;;;;;11.27;7.43;;;;;;;2.56;76.05;101293.75;5026188;28;20056;-84
2022/04/04 05:49:20;;;;;;;11.05;6.47;;;;;;;2.70;75.64;101280.91;5051717;28;20033;-84
2022/04/04 05:51:46;;;;;;;18.27;7.82;;;;;;;2.66;75.84;101287.81;5051665;28;20037;-85
2022/04/04 05:54:13;;;;;;;18.00;7.57;;;;;;;2.75;75.98;101287.97;5049976;28;20469;-86
2022/04/04 05:56:39;;;;;;;11.40;6.57;;;;;;;2.73;76.36;101280.97;5049888;28;20045;-84
2022/04/04 05:59:05;;;;;;;11.63;6.93;;;;;;;2.69;76.33;101280.00;5051533;28;20361;-86
2022/04/04 06:01:30;;;;;;;12.20;7.35;;;;;;;2.83;75.15;101275.03;5049860;28;20102;-86
2022/04/04 06:03:57;;;;;;;13.13;6.15;;;;;;;2.83;75.47;101255.84;5032399;28;20025;-86
2022/04/04 06:06:23;;;;;;;9.20;6.93;;;;;;;2.91;74.18;101273.41;5017073;28;20497;-84
2022/04/04 06:08:49;;;;;;;13.93;6.85;;;;;;;2.98;73.85;101271.78;5017525;28;20152;-85
2022/04/04 06:11:14;;;;;;;9.93;5.75;;;;;;;3.11;73.19;101247.56;5013290;28;20101;-88
2022/04/04 06:13:40;;;;;;;9.35;6.72;;;;;;;3.29;72.42;101260.06;5022638;28;20073;-81
2022/04/04 06:16:06;;;;;;;12.20;7.25;;;;;;;3.19;72.79;101256.44;5014706;28;20040;-83
2022/04/04 06:18:31;;;;;;;12.18;7.47;;;;;;;3.22;73.15;101260.81;5038786;28;20025;-85
2022/04/04 06:20:57;;;;;;;12.02;7.88;;;;;;;3.37;72.18;101253.19;5010347;28;20488;-82
2022/04/04 06:23:23;;;;;;;16.58;7.35;;;;;;;3.35;72.30;101231.34;5030270;28;20049;-89
2022/04/04 06:25:49;;;;;;;19.30;7.15;;;;;;;3.43;71.39;101231.44;5029316;28;20487;-89
2022/04/04 06:28:15;;;;;;;9.80;7.30;;;;;;;3.51;71.54;101223.69;5030328;28;20580;-85
2022/04/04 06:30:41;;;;;;;11.60;6.90;;;;;;;3.63;70.97;101227.34;5013308;28;20235;-86
2022/04/04 06:33:07;;;;;;;9.35;5.43;;;;;;;3.58;71.36;101217.69;5036759;28;20405;-91
2022/04/04 06:35:33;;;;;;;14.07;7.88;;;;;;;3.55;70.99;101223.75;5031133;28;20100;-91
2022/04/04 06:38:02;;;;;;;12.27;7.70;;;;;;;3.58;70.81;101222.91;5036828;28;20045;-90
2022/04/04 06:40:29;;;;;;;16.98;7.35;;;;;;;3.61;71.40;101208.13;5045135;28;20037;-91
2022/04/04 06:42:56;;;;;;;13.18;6.63;;;;;;;3.60;71.99;101202.88;5035139;28;20125;-90
2022/04/04 06:45:21;;;;;;;11.93;6.65;;;;;;;3.63;71.21;101185.44;5055173;28;20039;-90
2022/04/04 06:47:47;;;;;;;13.75;7.85;;;;;;;3.60;71.15;101184.53;5020822;28;20488;-90
2022/04/04 06:50:13;;;;;;;13.10;7.40;;;;;;;3.69;71.03;101186.41;5037003;28;20131;-90
2022/04/04 06:52:40;;;;;;;9.52;5.75;;;;;;;3.66;71.23;101180.25;5016576;28;20108;-88
2022/04/04 06:55:07;;;;;;;12.52;6.90;;;;;;;3.62;71.38;101174.97;5032389;28;20094;-90
2022/04/04 06:57:32;;;;;;;10.93;7.35;;;;;;;3.62;72.09;101167.97;5032376;28;20049;-90
2022/04/04 06:59:58;;;;;;;9.77;6.50;;;;;;;3.73;71.57;101164.59;5034327;28;20444;-90
2022/04/04 07:02:23;;;;;;;10.13;6.50;;;;;;;3.74;70.96;101167.25;5033817;28;20038;-88
2022/04/04 07:04:49;;;;;;;10.85;6.15;;;;;;;3.87;70.23;101156.03;5032625;28;20052;-89
2022/04/04 07:07:17;;;;;;;8.05;5.70;;;;;;;3.79;70.83;101144.59;5032123;28;20030;-89
2022/04/04 07:09:45;;;;;;;14.40;6.63;;;;;;;3.87;70.62;101152.53;5016605;28;20592;-90
2022/04/04 07:12:10;;;;;;;10.82;7.25;;;;;;;3.98;70.20;101147.41;5032164;28;20048;-90
2022/04/04 07:14:36;;;;;;;11.77;7.03;;;;;;;3.95;69.96;101144.75;5033206;28;20025;-91
2022/04/04 07:17:02;;;;;;;12.48;6.22;;;;;;;4.06;69.54;101137.88;5040620;28;20028;-89
2022/04/04 07:19:33;;;;;;;10.70;6.97;;;;;;;4.04;70.47;101119.50;5053378;28;20070;-89
2022/04/04 07:22:02;;;;;;;10.25;5.43;;;;;;;4.19;69.80;101131.88;5039156;28;20044;-90
2022/04/04 07:24:28;;;;;;;10.18;6.47;;;;;;;4.12;70.06;101121.34;5032059;28;20355;-88
2022/04/04 07:26:54;;;;;;;10.70;6.78;;;;;;;4.22;69.76;101117.94;5031626;28;20071;-90
2022/04/04 07:29:19;;;;;;;10.07;6.90;;;;;;;4.21;70.27;101106.56;4998867;28;20044;-90
2022/04/04 07:31:44;;;;;;;10.73;5.85;;;;;;;4.39;69.63;101111.06;5032149;28;20045;-90
2022/04/04 07:34:10;;;;;;;8.70;6.65;;;;;;;4.34;70.12;101106.66;5031702;28;20472;-89
2022/04/04 07:36:37;;;;;;;11.63;6.32;;;;;;;4.37;69.52;101118.03;5031743;28;20049;-89
2022/04/04 07:39:04;;;;;;;10.60;6.22;;;;;;;4.48;68.66;101107.66;5031798;28;20045;-91
2022/04/04 07:41:30;;;;;;;11.15;7.15;;;;;;;4.37;69.91;101097.06;5031915;28;20041;-89
2022/04/04 07:43:55;;;;;;;12.63;7.60;;;;;;;4.45;70.07;101091.88;5032969;28;20338;-91
2022/04/04 07:46:21;;;;;;;10.35;6.60;;;;;;;4.39;70.45;101083.97;4998789;28;20424;-87
2022/04/04 07:48:47;;;;;;;8.85;6.10;;;;;;;4.64;69.49;101085.91;5031618;28;20045;-87
2022/04/04 07:51:13;;;;;;;11.73;6.57;;;;;;;4.68;68.65;101071.06;5031338;28;20048;-90
2022/04/04 07:53:39;;;;;;;12.48;7.32;;;;;;;4.58;69.13;101058.78;4982321;28;20136;-88
2022/04/04 07:56:05;;;;;;;11.95;7.15;;;;;;;4.70;69.01;101088.56;5031204;28;20128;-86
2022/04/04 07:58:30;;;;;;;13.48;7.20;;;;;;;4.70;69.22;101048.34;5031425;28;20064;-89
2022/04/04 08:00:56;;;;;;;11.55;6.47;;;;;;;4.74;69.04;101047.47;5015529;28;20061;-88
2022/04/04 08:03:23;;;;;;;11.65;6.82;;;;;;;5.05;68.05;101039.75;5033107;28;20070;-87
2022/04/04 08:05:48;;;;;;;11.32;6.15;;;;;;;5.06;67.61;101052.88;5015641;28;20103;-88
2022/04/04 08:08:14;;;;;;;9.05;5.35;;;;;;;5.09;67.45;101049.38;5031631;28;20468;-88
2022/04/04 08:10:41;;;;;;;9.50;6.47;;;;;;;5.25;66.58;101030.19;5033366;28;20155;-89
2022/04/04 08:13:07;;;;;;;9.32;6.07;;;;;;;5.25;66.36;101017.06;5031345;28;20037;-88
2022/04/04 08:15:33;;;;;;;10.32;6.45;;;;;;;5.21;66.74;101019.69;5031781;28;20037;-91
2022/04/04 08:17:59;;;;;;;12.85;5.90;;;;;;;5.41;65.76;101027.59;5032930;28;20029;-89
2022/04/04 08:20:24;;;;;;;11.65;6.72;;;;;;;5.38;66.23;101020.59;5032915;28;20096;-88
2022/04/04 08:22:51;;;;;;;11.65;6.63;;;;;;;5.36;66.06;101009.22;5031520;28;20049;-89
2022/04/04 08:25:17;;;;;;;8.85;5.65;;;;;;;5.47;65.82;100994.38;5033369;28;20025;-89
2022/04/04 08:27:43;;;;;;;10.30;5.57;;;;;;;5.65;64.83;101009.25;5015279;28;20440;-84
2022/04/04 08:30:11;;;;;;;10.65;6.35;;;;;;;5.67;64.59;101002.25;5032830;28;20017;-89
2022/04/04 08:32:38;;;;;;;11.02;6.10;;;;;;;5.64;64.52;100989.13;5032631;28;20056;-89
2022/04/04 08:35:08;;;;;;;14.50;7.13;;;;;;;5.89;64.27;100987.38;5032464;28;20049;-90
2022/04/04 08:37:35;;;;;;;10.95;6.10;;;;;;;5.72;64.07;100981.25;5014357;28;20052;-90
2022/04/04 08:40:02;;;;;;;9.25;5.55;;;;;;;5.70;65.21;100983.00;5032608;28;20056;-89
2022/04/04 08:42:28;;;;;;;12.18;6.43;;;;;;;5.86;64.03;100994.38;5032526;28;20346;-88
2022/04/04 08:44:56;;;;;;;12.68;5.72;;;;;;;5.74;64.38;100956.72;5032326;28;20041;-87
2022/04/04 08:47:22;;;;;;;14.27;7.18;;;;;;;5.71;64.68;100972.50;5030796;28;20124;-88
2022/04/04 08:49:52;;;;;;;12.52;6.72;;;;;;;5.74;64.93;100959.34;5032325;28;20060;-89
2022/04/04 08:52:19;;;;;;;9.75;6.40;;;;;;;5.74;65.12;100958.47;5028281;28;20037;-88
2022/04/04 08:54:44;;;;;;;9.23;5.53;;;;;;;5.84;64.39;100965.47;5015469;28;20440;-88
2022/04/04 08:57:10;;;;;;;13.32;6.53;;;;;;;5.84;64.37;100948.84;5032566;28;20057;-88
2022/04/04 08:59:35;;;;;;;14.82;6.15;;;;;;;5.88;65.21;100966.34;5040036;28;20076;-89
2022/04/04 09:02:01;;;;;;;14.52;7.10;;;;;;;5.68;66.17;100951.44;5017198;28;20025;-88
2022/04/04 09:04:27;;;;;;;12.65;7.53;;;;;;;5.60;66.35;100947.97;5034637;28;20509;-88
2022/04/04 09:06:55;;;;;;;15.07;7.10;;;;;;;5.57;67.56;100954.09;5050771;28;20033;-88
2022/04/04 09:09:25;;;;;;;13.55;8.07;;;;;;;5.62;67.08;100953.22;5043944;28;20049;-88
2022/04/04 09:12:09;;;;;;;12.95;7.20;;;;;;;5.66;67.16;100955.81;5047681;28;20397;-89
2022/04/04 09:14:41;;;;;;;13.85;7.43;;;;;;;5.53;68.19;100948.81;5031357;28;20029;-89
2022/04/04 09:17:08;;;;;;;13.55;6.25;;;;;;;5.71;67.13;100946.22;5032773;28;20468;-88
2022/04/04 09:19:34;;;;;;;15.05;6.95;;;;;;;5.64;67.87;100930.44;5039660;28;20029;-90
2022/04/04 09:22:07;;;;;;;11.38;7.38;;;;;;;5.79;67.44;100954.09;5050424;28;20378;-88
2022/04/04 09:24:56;;;;;;;11.25;7.00;;;;;;;5.56;68.82;100938.31;5050434;28;20093;-89
2022/04/04 09:27:22;;;;;;;13.18;7.15;;;;;;;5.64;68.97;100917.28;5052028;28;20426;-87
2022/04/04 09:29:50;;;;;;;15.52;6.68;;;;;;;5.65;69.23;100924.31;5051785;28;20040;-86
2022/04/04 09:32:16;;;;;;;13.07;7.28;;;;;;;5.55;69.97;100919.06;5032644;28;20032;-88
2022/04/04 09:35:08;;;;;;;19.13;7.68;;;;;;;5.49;71.22;100916.44;5030996;28;20441;-85
2022/04/04 09:37:35;;;;;;;12.05;6.78;;;;;;;5.55;70.91;100911.19;5047185;28;20631;-87
2022/04/04 09:40:24;;;;;;;10.75;6.07;;;;;;;5.79;70.31;100912.06;5033651;28;20044;-87
2022/04/04 09:42:50;;;;;;;13.07;7.32;;;;;;;5.59;71.14;100915.56;5032044;28;20037;-87
2022/04/04 09:45:16;;;;;;;11.98;7.45;;;;;;;5.60;71.14;100933.06;5031477;28;20108;-90
2022/04/04 09:47:58;;;;;;;15.48;7.90;;;;;;;5.45;72.52;100911.19;5042543;28;20032;-88
2022/04/04 09:50:44;;;;;;;17.17;8.85;;;;;;;5.35;73.22;100910.31;5048638;28;20104;-90
2022/04/04 09:53:20;;;;;;;11.05;7.05;;;;;;;5.41;72.97;100904.16;5031693;28;20103;-89
2022/04/04 09:55:57;;;;;;;13.68;8.05;;;;;;;5.26;74.26;100910.28;5030787;28;20042;-87
2022/04/04 09:58:28;;;;;;;15.10;8.73;;;;;;;5.32;74.19;100907.69;5031942;28;20041;-87
2022/04/04 10:00:55;;;;;;;15.65;7.50;;;;;;;5.26;75.31;100905.91;5034022;28;20082;-82
2022/04/04 10:03:22;;;;;;;15.82;8.75;;;;;;;5.19;75.99;100904.16;5051017;28;20128;-80
2022/04/04 10:06:04;;;;;;;19.48;9.30;;;;;;;5.18;76.01;100889.28;5049696;28;20365;-81
2022/04/04 10:08:31;;;;;;;;;;;;;;;5.15;76.15;100887.53;5049968;28;20047;-80
2022/04/04 10:10:57;;;;;;;14.23;7.00;;;;;;;5.20;76.78;100886.66;5047752;28;19913;-82
2022/04/04 10:13:26;;;;;;;14.27;8.35;;;;;;;5.13;77.43;100888.41;5013459;28;20035;-82
2022/04/04 10:15:53;;;;;;;11.90;7.95;;;;;;;5.12;77.86;100877.03;5034174;28;20109;-82
2022/04/04 10:18:19;;;;;;;13.65;7.63;;;;;;;5.40;76.26;100882.28;5032140;28;20087;-79
2022/04/04 10:20:52;;;;;;;12.50;7.95;;;;;;;5.16;77.70;100863.00;5039669;28;20632;-84
2022/04/04 10:23:20;;;;;;;13.82;8.27;;;;;;;5.32;77.54;100881.44;5049539;28;20037;-80
2022/04/04 10:25:49;;;;;;;11.73;8.25;;;;;;;5.21;78.73;100868.28;5036062;28;20044;-81
2022/04/04 10:28:35;;;;;;;9.85;7.63;;;;;;;5.22;79.45;100870.03;5033124;28;20048;-79
2022/04/04 10:31:16;;;;;;;15.60;9.60;;;;;;;5.15;80.67;100887.53;5033434;28;20037;-80
2022/04/04 10:33:43;;;;;;;17.95;9.23;;;;;;;5.21;80.89;100867.41;5032729;28;20351;-79
2022/04/04 10:36:11;;;;;;;19.17;9.73;;;;;;;5.20;81.12;100873.53;5049658;28;20031;-81
2022/04/04 10:38:48;;;;;;;16.02;9.77;;;;;;;5.15;82.17;100873.53;5015930;28;20057;-79
2022/04/04 10:41:15;;;;;;;18.13;9.82;;;;;;;5.13;82.46;100868.28;5032683;28;20040;-80
2022/04/04 10:43:47;;;;;;;16.85;8.25;;;;;;;5.10;82.51;100870.03;5016454;28;20125;-77
2022/04/04 10:46:13;;;;;;;;;;;;;;;5.07;83.52;100873.53;5032769;28;20113;-79
2022/04/04 10:48:41;;;;;;;12.63;8.65;;;;;;;5.03;83.91;100863.88;5032031;28;20392;-82
2022/04/04 10:51:26;;;;;;;16.85;10.80;;;;;;;5.03;84.52;100857.78;5032009;28;20094;-82
2022/04/04 10:53:54;;;;;;;12.82;8.60;;;;;;;5.01;85.44;100843.78;5032010;28;20109;-83
2022/04/04 10:56:37;;;;;;;14.45;10.88;;;;;;;5.02;85.85;100843.78;5032216;28;20030;-84
2022/04/04 10:59:15;;;;;;;18.08;10.73;;;;;;;5.01;86.80;100847.25;5031850;28;20038;-82
2022/04/04 11:01:49;;;;;;;13.25;9.73;;;;;;;4.99;87.51;100849.00;5032067;28;20049;-79
2022/04/04 11:04:25;;;;;;;15.82;10.50;;;;;;;5.02;87.43;100835.91;5033100;28;20061;-83
2022/04/04 11:09:51;;;;;;;13.38;8.65;;;;;;;5.05;86.94;100830.66;5033572;28;20521;-79
2022/04/04 11:12:18;;;;;;;11.38;8.18;;;;;;;5.12;86.41;100824.53;5046678;28;20065;-78
2022/04/04 11:14:54;;;;;;;14.93;8.75;;;;;;;5.02;87.10;100821.88;5031805;28;20029;-84
2022/04/04 11:17:23;;;;;;;16.02;9.88;;;;;;;4.96;88.46;100820.13;5048509;28;20325;-81
2022/04/04 11:20:21;;;;;;;10.10;8.13;;;;;;;4.98;88.71;100828.03;5032252;28;20037;-87
2022/04/04 11:22:52;;;;;;;10.85;8.57;;;;;;;4.94;88.78;100793.88;5015678;28;20148;-85
2022/04/04 11:25:21;;;;;;;10.10;8.02;;;;;;;4.96;88.52;100804.38;5015502;28;20049;-89
2022/04/04 11:27:48;;;;;;;13.10;8.85;;;;;;;4.87;88.85;100812.25;5031409;28;20033;-80
2022/04/04 11:30:16;;;;;;;10.57;7.22;;;;;;;4.84;89.36;100797.38;5031855;28;20093;-79
2022/04/04 11:32:44;;;;;;;10.77;7.05;;;;;;;4.94;88.63;100809.63;5032649;28;20465;-83
2022/04/04 11:35:22;;;;;;;9.57;7.95;;;;;;;4.81;89.80;100793.91;5032937;28;20180;-84
2022/04/04 11:37:54;;;;;;;11.80;7.28;;;;;;;4.85;89.94;100795.66;5032475;28;20037;-83